Time;durP1;ratioP1;P1;durP2;ratioP2;P2;SDS_P1;SDS_P2;PMS_P1;PMS_P2;Temp;Humidity;BMP_temperature;BMP_pressure;BME280_temperature;BME280_humidity;BME280_pressure;Samples;Min_cycle;Max_cycle;Signal;HPM_P1;HPM_P2
2022/04/27 00:00:41;;;;;;;40.37;14.13;;;;;8.30;96422.00;;;;8316962;28;20316;-76
2022/04/27 00:04:45;;;;;;;45.67;14.23;;;;;8.30;96427.00;;;;8308253;28;20229;-77
2022/04/27 00:08:48;;;;;;;54.07;14.53;;;;;8.30;96430.00;;;;8314466;28;20225;-76
2022/04/27 00:12:53;;;;;;;30.23;12.33;;;;;8.20;96429.00;;;;8310140;28;20690;-75
2022/04/27 00:16:56;;;;;;;35.57;12.70;;;;;8.20;96424.00;;;;8305464;28;20228;-74
2022/04/27 00:21:00;;;;;;;35.83;12.57;;;;;8.20;96424.00;;;;8313201;28;20233;-75
2022/04/27 00:25:05;;;;;;;30.93;12.60;;;;;8.20;96432.00;;;;8311992;28;20653;-75
2022/04/27 00:29:09;;;;;;;54.93;14.20;;;;;8.10;96428.00;;;;8318978;28;20304;-79
2022/04/27 00:33:13;;;;;;;41.63;13.07;;;;;8.10;96429.00;;;;8317363;28;20220;-77
2022/04/27 00:37:17;;;;;;;37.87;13.63;;;;;8.10;96425.00;;;;8316476;28;20258;-78
2022/04/27 00:41:20;;;;;;;33.83;12.70;;;;;8.10;96426.00;;;;8318457;28;20278;-78
2022/04/27 00:45:25;;;;;;;121.13;16.87;;;;;8.10;96433.00;;;;8318428;28;20360;-77
2022/04/27 00:49:29;;;;;;;134.90;16.47;;;;;8.20;96432.00;;;;8323213;28;20225;-77
2022/04/27 00:53:33;;;;;;;324.47;24.03;;;;;8.20;96429.00;;;;8317554;28;20327;-76
2022/04/27 00:57:39;;;;;;;415.67;25.73;;;;;8.20;96425.00;;;;8317255;28;21153;-75
2022/04/27 01:01:44;;;;;;;356.50;22.50;;;;;8.20;96437.00;;;;8317399;28;20237;-75
2022/04/27 01:05:48;;;;;;;716.37;37.33;;;;;8.20;96442.00;;;;8318207;28;20715;-75
2022/04/27 01:09:52;;;;;;;616.07;33.30;;;;;8.20;96445.00;;;;8318206;28;20243;-74
2022/04/27 01:13:55;;;;;;;370.70;25.57;;;;;8.10;96454.00;;;;8318517;28;20647;-74
2022/04/27 01:18:00;;;;;;;136.77;17.90;;;;;8.20;96453.00;;;;8315735;28;20233;-73
2022/04/27 01:22:05;;;;;;;237.30;19.77;;;;;8.20;96454.00;;;;8314871;28;20320;-75
2022/04/27 01:26:08;;;;;;;177.67;17.20;;;;;8.30;96459.00;;;;8317851;28;20232;-74
2022/04/27 01:30:12;;;;;;;243.57;22.07;;;;;8.30;96447.00;;;;8319079;28;20312;-74
2022/04/27 01:34:15;;;;;;;500.30;28.97;;;;;8.30;96453.00;;;;8316515;28;20824;-74
2022/04/27 01:38:20;;;;;;;451.97;28.33;;;;;8.20;96455.00;;;;8316279;28;20228;-74
2022/04/27 01:42:24;;;;;;;212.43;21.93;;;;;8.20;96458.00;;;;8318072;28;20574;-75
2022/04/27 01:46:27;;;;;;;250.60;21.90;;;;;8.10;96457.00;;;;8316287;28;20332;-75
2022/04/27 01:50:31;;;;;;;53.60;14.30;;;;;8.10;96451.00;;;;8320342;28;20316;-76
2022/04/27 01:54:34;;;;;;;53.23;13.63;;;;;8.00;96461.00;;;;8316603;28;20237;-76
2022/04/27 01:58:41;;;;;;;41.17;13.73;;;;;8.00;96460.00;;;;8317491;28;20255;-75
2022/04/27 02:02:44;;;;;;;45.43;15.23;;;;;8.00;96453.00;;;;8314112;28;20331;-76
2022/04/27 02:06:48;;;;;;;51.43;15.87;;;;;8.00;96450.00;;;;8309301;28;20232;-77
2022/04/27 02:10:53;;;;;;;52.93;16.40;;;;;8.00;96456.00;;;;8317246;28;20709;-76
2022/04/27 02:14:56;;;;;;;54.37;16.77;;;;;7.90;96456.00;;;;8315724;28;20702;-76
2022/04/27 02:18:59;;;;;;;52.73;16.17;;;;;8.00;96462.00;;;;8322891;28;20304;-76
2022/04/27 02:23:02;;;;;;;50.37;15.20;;;;;8.00;96466.00;;;;8315348;28;20324;-76
2022/04/27 02:27:07;;;;;;;53.63;16.83;;;;;8.00;96471.00;;;;8316496;28;20229;-77
2022/04/27 02:31:10;;;;;;;67.87;16.43;;;;;8.00;96473.00;;;;8314380;28;20788;-77
2022/04/27 02:35:14;;;;;;;51.23;16.37;;;;;7.90;96467.00;;;;8316386;28;20217;-77
2022/04/27 02:39:18;;;;;;;51.37;16.00;;;;;7.90;96474.00;;;;8316273;28;20758;-76
2022/04/27 02:43:23;;;;;;;45.87;15.77;;;;;8.00;96476.00;;;;8314255;28;20641;-76
2022/04/27 02:47:26;;;;;;;52.07;15.40;;;;;8.00;96483.00;;;;8322950;28;20309;-77
2022/04/27 02:55:50;;;;;;;60.37;17.57;;;;;8.00;96485.00;;;;8314780;28;20655;-76
2022/04/27 02:59:55;;;;;;;58.13;16.87;;;;;8.10;96491.00;;;;8314413;28;20228;-76
2022/04/27 03:03:58;;;;;;;62.57;16.73;;;;;8.10;96493.00;;;;8395723;22;20237;-77
2022/04/27 03:08:01;;;;;;;63.30;17.60;;;;;8.10;96503.00;;;;8343310;28;20233;-76
2022/04/27 03:12:05;;;;;;;55.57;16.67;;;;;8.10;96500.00;;;;8342438;28;20640;-77
2022/04/27 03:16:10;;;;;;;55.60;17.23;;;;;8.10;96498.00;;;;8341902;28;20221;-77
2022/04/27 03:20:13;;;;;;;59.10;16.50;;;;;8.10;96510.00;;;;8347247;28;20589;-77
2022/04/27 03:24:17;;;;;;;65.80;18.20;;;;;8.10;96506.00;;;;8348550;28;20232;-77
2022/04/27 03:28:20;;;;;;;56.40;16.27;;;;;8.10;96511.00;;;;8345014;28;20219;-76
2022/04/27 03:32:25;;;;;;;65.80;18.03;;;;;8.10;96511.00;;;;8344829;28;20228;-76
2022/04/27 03:36:29;;;;;;;56.20;17.20;;;;;8.20;96516.00;;;;8345289;28;20232;-77
2022/04/27 03:40:32;;;;;;;66.30;18.53;;;;;8.20;96520.00;;;;8343045;28;20254;-75
2022/04/27 03:44:35;;;;;;;67.70;18.20;;;;;8.20;96522.00;;;;8333363;28;20223;-75
2022/04/27 03:48:41;;;;;;;57.30;17.33;;;;;8.20;96526.00;;;;8341965;28;20689;-74
2022/04/27 03:52:44;;;;;;;60.43;17.97;;;;;8.20;96532.00;;;;8343470;28;20240;-74
2022/04/27 03:56:47;;;;;;;65.47;18.10;;;;;8.30;96534.00;;;;8346710;28;20765;-76
2022/04/27 04:00:50;;;;;;;60.67;17.57;;;;;8.30;96540.00;;;;8345697;28;20239;-75
2022/04/27 04:04:55;;;;;;;53.37;16.27;;;;;8.30;96543.00;;;;8342656;28;20716;-68
2022/04/27 04:08:58;;;;;;;57.97;16.77;;;;;8.40;96550.00;;;;8320702;28;20591;-70
2022/04/27 04:13:02;;;;;;;64.80;17.57;;;;;8.40;96549.00;;;;8311888;28;20747;-70
2022/04/27 04:17:05;;;;;;;59.33;16.30;;;;;8.40;96551.00;;;;8333796;28;20721;-69
2022/04/27 04:21:10;;;;;;;47.43;14.77;;;;;8.30;96555.00;;;;8333798;28;20222;-68
2022/04/27 04:29:42;;;;;;;28.10;10.23;;;;;8.30;96563.00;;;;8302737;28;21963;-69
2022/04/27 04:33:45;;;;;;;26.70;10.33;;;;;8.30;96565.00;;;;8338537;28;20231;-70
2022/04/27 04:37:50;;;;;;;28.13;10.10;;;;;8.30;96564.00;;;;8342667;28;20549;-69
2022/04/27 04:41:53;;;;;;;29.97;10.83;;;;;8.30;96578.00;;;;8329031;28;20254;-68
2022/04/27 04:45:56;;;;;;;30.17;10.57;;;;;8.30;96594.00;;;;8334467;28;20339;-69
2022/04/27 04:50:28;;;;;;;30.13;10.77;;;;;8.30;96595.00;;;;8321399;28;20255;-71
2022/04/27 04:54:33;;;;;;;31.40;11.03;;;;;8.30;96595.00;;;;8334227;28;20682;-70
2022/04/27 04:58:37;;;;;;;28.73;10.80;;;;;8.30;96604.00;;;;8343468;28;20228;-71
2022/04/27 05:02:40;;;;;;;30.47;11.10;;;;;8.30;96608.00;;;;8338856;28;20239;-78
2022/04/27 05:06:45;;;;;;;34.07;12.03;;;;;8.30;96609.00;;;;8337363;28;20320;-71
2022/04/27 05:10:49;;;;;;;31.27;12.37;;;;;8.30;96606.00;;;;8335037;28;20225;-72
2022/04/27 05:14:53;;;;;;;35.63;12.90;;;;;8.30;96616.00;;;;8325092;28;20309;-74
2022/04/27 05:18:56;;;;;;;30.27;12.60;;;;;8.30;96607.00;;;;8322276;28;20228;-76
2022/04/27 05:22:59;;;;;;;37.57;12.97;;;;;8.40;96614.00;;;;8337789;28;20235;-75
2022/04/27 05:27:04;;;;;;;33.33;12.33;;;;;8.50;96616.00;;;;8334266;28;20224;-73
2022/04/27 05:35:28;;;;;;;47.70;13.77;;;;;8.70;96627.00;;;;8330654;28;20641;-70
2022/04/27 05:39:31;;;;;;;39.27;13.83;;;;;8.80;96625.00;;;;8337226;28;20315;-75
2022/04/27 05:43:37;;;;;;;29.77;12.50;;;;;9.00;96626.00;;;;8340740;28;20862;-72
2022/04/27 05:47:40;;;;;;;37.87;13.10;;;;;9.20;96623.00;;;;8329723;28;20248;-70
2022/04/27 05:51:44;;;;;;;38.33;13.80;;;;;9.40;96638.00;;;;8340478;28;20307;-71
2022/04/27 05:55:47;;;;;;;36.53;13.10;;;;;9.70;96653.00;;;;8331493;28;20311;-71
2022/04/27 05:59:52;;;;;;;33.60;12.97;;;;;9.90;96671.00;;;;8334406;28;20232;-71
2022/04/27 06:03:55;;;;;;;26.10;11.37;;;;;10.00;96673.00;;;;8331526;28;20605;-70
2022/04/27 06:07:58;;;;;;;32.33;13.00;;;;;10.10;96683.00;;;;8335274;28;20232;-70
2022/04/27 06:12:02;;;;;;;31.27;12.23;;;;;10.20;96678.00;;;;8332593;28;20327;-70
2022/04/27 06:16:07;;;;;;;24.93;11.87;;;;;10.40;96686.00;;;;8331527;28;20673;-70
2022/04/27 06:20:11;;;;;;;28.73;13.17;;;;;10.40;96689.00;;;;8329964;28;20758;-70
2022/04/27 06:24:14;;;;;;;27.67;12.60;;;;;10.40;96682.00;;;;8334240;28;20807;-71
2022/04/27 06:28:20;;;;;;;28.48;13.85;;;;;10.30;96679.00;;;;8335477;28;20299;-71
2022/04/27 06:32:25;;;;;;;23.73;10.97;;;;;10.20;96686.00;;;;8336550;28;20320;-70
2022/04/27 06:36:28;;;;;;;23.27;10.63;;;;;10.00;96698.00;;;;8341955;28;20243;-70
2022/04/27 06:40:31;;;;;;;20.83;9.90;;;;;9.90;96697.00;;;;8327198;28;20242;-70
2022/04/27 06:44:34;;;;;;;24.23;11.67;;;;;9.90;96699.00;;;;8328306;28;20699;-70
2022/04/27 06:48:40;;;;;;;26.63;12.17;;;;;9.90;96705.00;;;;8348422;28;20697;-71
2022/04/27 06:52:45;;;;;;;24.52;11.57;;;;;10.00;96711.00;;;;8348253;28;20251;-70
2022/04/27 06:56:48;;;;;;;22.07;10.73;;;;;10.00;96719.00;;;;8363481;28;20574;-72
2022/04/27 07:00:52;;;;;;;22.33;9.50;;;;;10.00;96720.00;;;;8340308;28;20248;-70
2022/04/27 07:05:00;;;;;;;21.17;10.50;;;;;10.00;96728.00;;;;8357432;28;20677;-71
2022/04/27 07:09:04;;;;;;;21.50;10.60;;;;;10.00;96722.00;;;;8361989;28;20311;-70
2022/04/27 07:13:07;;;;;;;23.03;11.00;;;;;10.10;96730.00;;;;8350927;28;20593;-70
2022/04/27 07:17:10;;;;;;;21.47;10.67;;;;;10.60;96724.00;;;;8348870;28;20220;-71
2022/04/27 07:21:15;;;;;;;19.37;10.47;;;;;11.10;96723.00;;;;8356006;28;20227;-71
2022/04/27 07:25:20;;;;;;;16.90;9.53;;;;;11.20;96732.00;;;;8350979;28;20316;-72
2022/04/27 07:29:23;;;;;;;14.03;8.90;;;;;11.50;96741.00;;;;8343076;28;20221;-72
2022/04/27 07:33:27;;;;;;;13.77;8.43;;;;;11.40;96747.00;;;;8334952;28;20227;-66
2022/04/27 07:37:32;;;;;;;12.93;8.57;;;;;11.60;96761.00;;;;8339695;28;20224;-71
2022/04/27 07:41:35;;;;;;;13.02;7.90;;;;;11.90;96749.00;;;;8341401;28;20261;-72
2022/04/27 07:45:39;;;;;;;9.35;7.18;;;;;12.10;96765.00;;;;8338380;28;20217;-72
2022/04/27 07:49:44;;;;;;;9.18;6.93;;;;;12.30;96770.00;;;;8341577;28;20228;-72
2022/04/27 07:53:49;;;;;;;7.90;5.97;;;;;13.20;96776.00;;;;8334225;28;20317;-72
2022/04/27 07:57:52;;;;;;;7.75;6.38;;;;;13.80;96772.00;;;;8338604;28;20308;-72
2022/04/27 08:01:55;;;;;;;8.55;6.40;;;;;13.90;96787.00;;;;8339203;28;20230;-72
2022/04/27 08:06:01;;;;;;;7.32;6.00;;;;;13.90;96796.00;;;;8343803;28;20225;-74
2022/04/27 08:10:11;;;;;;;6.93;6.18;;;;;13.70;96793.00;;;;8340706;28;20251;-73
2022/04/27 08:14:14;;;;;;;7.47;6.45;;;;;13.60;96803.00;;;;8334527;28;20302;-71
2022/04/27 08:18:19;;;;;;;8.80;7.00;;;;;13.40;96798.00;;;;8326840;28;20689;-70
2022/04/27 08:22:22;;;;;;;8.68;6.80;;;;;13.70;96801.00;;;;8329183;28;20353;-71
2022/04/27 08:26:27;;;;;;;8.52;7.05;;;;;13.90;96805.00;;;;8329124;28;20237;-72
2022/04/27 08:30:30;;;;;;;8.13;6.72;;;;;14.30;96803.00;;;;8333012;28;20748;-72
2022/04/27 08:34:33;;;;;;;15.23;10.70;;;;;14.50;96807.00;;;;8324901;28;20225;-72
2022/04/27 08:38:37;;;;;;;14.73;8.50;;;;;14.90;96812.00;;;;8315997;28;20621;-72
2022/04/27 08:42:42;;;;;;;12.52;9.75;;;;;15.60;96816.00;;;;8326921;28;20232;-71
2022/04/27 08:46:46;;;;;;;12.27;9.35;;;;;15.60;96827.00;;;;8317849;28;20227;-71
2022/04/27 08:50:50;;;;;;;14.00;10.88;;;;;15.10;96826.00;;;;8339663;28;20372;-68
2022/04/27 08:54:53;;;;;;;18.00;12.65;;;;;14.80;96843.00;;;;8338772;28;20319;-70
2022/04/27 08:58:58;;;;;;;14.07;10.60;;;;;15.30;96850.00;;;;8333977;28;20228;-71
2022/04/27 09:03:26;;;;;;;18.58;12.65;;;;;15.40;96853.00;;;;8332261;28;20234;-72
2022/04/27 09:07:40;;;;;;;20.23;14.25;;;;;14.40;96851.00;;;;8329029;28;20246;-72
2022/04/27 09:11:43;;;;;;;20.00;14.27;;;;;14.30;96860.00;;;;8344602;28;20219;-72
2022/04/27 09:16:01;;;;;;;21.25;14.55;;;;;14.60;96860.00;;;;8338220;28;20239;-71
2022/04/27 09:24:49;;;;;;;19.92;13.35;;;;;16.20;96857.00;;;;8336881;28;20327;-71
2022/04/27 09:28:54;;;;;;;17.80;12.27;;;;;17.10;96857.00;;;;8331571;28;20229;-71
2022/04/27 09:32:58;;;;;;;15.63;12.77;;;;;17.50;96867.00;;;;8341071;28;20308;-71
2022/04/27 09:37:03;;;;;;;17.55;12.32;;;;;16.90;96864.00;;;;8332731;28;20573;-72
2022/04/27 09:41:06;;;;;;;16.85;11.60;;;;;16.60;96863.00;;;;8348510;28;20220;-73
2022/04/27 09:45:17;;;;;;;18.00;13.00;;;;;17.00;96865.00;;;;8343804;28;20216;-72
2022/04/27 09:49:22;;;;;;;16.70;12.85;;;;;17.40;96875.00;;;;8336983;28;20225;-72
2022/04/27 09:53:37;;;;;;;15.40;11.05;;;;;17.60;96874.00;;;;8327455;28;20240;-71
2022/04/27 09:57:42;;;;;;;15.60;11.05;;;;;16.60;96866.00;;;;8330091;28;20450;-71
2022/04/27 10:01:47;;;;;;;16.77;11.38;;;;;16.00;96875.00;;;;8329701;28;20235;-72
2022/04/27 10:05:52;;;;;;;15.70;11.73;;;;;16.90;96879.00;;;;8333048;28;20247;-72
2022/04/27 10:09:56;;;;;;;16.23;11.02;;;;;17.60;96875.00;;;;8333826;28;20228;-72
2022/04/27 10:14:00;;;;;;;13.45;10.32;;;;;18.20;96879.00;;;;8321575;28;20299;-71
2022/04/27 10:18:03;;;;;;;14.70;10.50;;;;;19.40;96887.00;;;;8332869;28;20307;-72
2022/04/27 10:22:25;;;;;;;15.18;9.48;;;;;20.30;96882.00;;;;8344142;28;20963;-72
2022/04/27 10:26:31;;;;;;;15.40;10.95;;;;;20.60;96887.00;;;;8345918;28;21061;-72
2022/04/27 10:30:43;;;;;;;14.13;10.52;;;;;20.50;96882.00;;;;8340408;28;20236;-71
2022/04/27 10:35:17;;;;;;;10.80;8.95;;;;;20.10;96882.00;;;;8344680;28;20228;-71
2022/04/27 10:39:27;;;;;;;11.73;9.68;;;;;19.60;96888.00;;;;8344808;28;20680;-72
2022/04/27 10:43:43;;;;;;;12.25;10.20;;;;;20.30;96884.00;;;;8344687;28;20364;-71
2022/04/27 10:47:46;;;;;;;14.93;11.00;;;;;20.10;96880.00;;;;8342607;28;20224;-71
2022/04/27 10:52:02;;;;;;;10.85;8.98;;;;;19.20;96874.00;;;;8343115;28;20244;-71
2022/04/27 10:56:22;;;;;;;12.07;9.88;;;;;18.50;96877.00;;;;8345162;28;20971;-70
2022/04/27 11:00:25;;;;;;;13.48;9.70;;;;;17.50;96881.00;;;;8346999;28;20228;-72
2022/04/27 11:04:50;;;;;;;11.95;9.68;;;;;16.70;96890.00;;;;8341306;28;20224;-71
2022/04/27 11:09:05;;;;;;;14.27;9.35;;;;;16.20;96888.00;;;;8340929;28;20382;-70
2022/04/27 11:13:12;;;;;;;11.85;8.98;;;;;16.10;96885.00;;;;8333069;28;20221;-71
2022/04/27 11:17:28;;;;;;;11.23;9.05;;;;;16.00;96890.00;;;;8332431;28;20624;-70
2022/04/27 11:21:31;;;;;;;14.18;9.88;;;;;15.90;96890.00;;;;8328123;28;20225;-71
2022/04/27 11:25:37;;;;;;;16.50;10.27;;;;;16.00;96889.00;;;;8320976;28;21103;-71
2022/04/27 11:29:42;;;;;;;15.40;9.93;;;;;16.00;96895.00;;;;8320765;28;20264;-71
2022/04/27 11:33:45;;;;;;;15.27;10.25;;;;;16.00;96889.00;;;;8322456;28;20224;-71
2022/04/27 11:37:48;;;;;;;14.45;9.95;;;;;16.10;96891.00;;;;8336976;28;20307;-70
2022/04/27 11:42:01;;;;;;;15.05;9.63;;;;;16.30;96894.00;;;;8314867;28;20232;-70
2022/04/27 11:46:08;;;;;;;15.30;9.63;;;;;16.40;96901.00;;;;8325381;28;20233;-70
2022/04/27 11:50:11;;;;;;;13.43;9.45;;;;;16.50;96898.00;;;;8325233;28;20235;-70
2022/04/27 11:54:25;;;;;;;21.52;10.77;;;;;16.70;96898.00;;;;8322357;28;20258;-70
2022/04/27 11:58:34;;;;;;;11.98;8.13;;;;;17.30;96906.00;;;;8328749;28;20241;-70
2022/04/27 12:02:42;;;;;;;9.93;8.13;;;;;17.80;96909.00;;;;8321681;28;20233;-70
2022/04/27 12:06:46;;;;;;;9.70;7.70;;;;;18.20;96908.00;;;;8322279;28;20229;-73
2022/04/27 12:10:50;;;;;;;10.57;7.28;;;;;18.70;96907.00;;;;8332686;28;20235;-73
2022/04/27 12:14:54;;;;;;;9.23;7.00;;;;;19.30;96907.00;;;;8344748;28;20230;-71
2022/04/27 12:18:59;;;;;;;7.28;6.45;;;;;19.20;96905.00;;;;8327783;28;20278;-72
2022/04/27 12:23:06;;;;;;;7.82;6.70;;;;;18.90;96914.00;;;;8346988;28;20225;-74
2022/04/27 12:27:18;;;;;;;7.75;6.70;;;;;18.70;96912.00;;;;8344911;28;20872;-72
2022/04/27 12:31:27;;;;;;;9.70;6.80;;;;;18.80;96907.00;;;;8352819;28;20223;-72
2022/04/27 12:40:13;;;;;;;9.25;6.57;;;;;18.30;96897.00;;;;8325369;28;20231;-74
2022/04/27 12:44:18;;;;;;;8.23;7.03;;;;;18.60;96901.00;;;;8328254;28;20233;-73
2022/04/27 12:48:31;;;;;;;7.53;6.50;;;;;18.70;96903.00;;;;8340568;28;20240;-77
2022/04/27 12:52:36;;;;;;;7.47;6.63;;;;;19.10;96908.00;;;;8331189;28;20328;-75
2022/04/27 12:56:39;;;;;;;9.23;7.88;;;;;19.20;96902.00;;;;8343715;28;20241;-76
2022/04/27 13:00:46;;;;;;;9.23;7.60;;;;;19.30;96897.00;;;;8345504;28;20862;-78
2022/04/27 13:04:49;;;;;;;7.97;6.38;;;;;19.80;96903.00;;;;8340317;28;21014;-76
2022/04/27 13:08:53;;;;;;;8.70;6.65;;;;;19.90;96896.00;;;;8353614;28;20250;-77
2022/04/27 13:12:56;;;;;;;9.20;6.85;;;;;19.80;96894.00;;;;8341126;28;20831;-77
2022/04/27 13:16:59;;;;;;;8.02;6.65;;;;;19.70;96897.00;;;;8346130;28;20319;-75
2022/04/27 13:21:02;;;;;;;8.02;6.47;;;;;19.70;96893.00;;;;8346515;28;20286;-77
2022/04/27 13:25:09;;;;;;;7.25;5.72;;;;;20.10;96898.00;;;;8344933;28;20239;-78
2022/04/27 13:29:12;;;;;;;7.32;5.88;;;;;21.00;96900.00;;;;8345678;28;20245;-77
2022/04/27 13:33:16;;;;;;;8.98;6.07;;;;;21.10;96901.00;;;;8365848;28;20234;-76
2022/04/27 13:37:20;;;;;;;7.68;6.63;;;;;20.80;96895.00;;;;8348189;28;20244;-77
2022/04/27 13:41:24;;;;;;;8.98;6.10;;;;;20.60;96895.00;;;;8348263;28;20335;-76
2022/04/27 13:45:31;;;;;;;7.03;6.30;;;;;20.30;96898.00;;;;8337365;28;20307;-77
2022/04/27 13:49:34;;;;;;;9.52;6.38;;;;;19.70;96897.00;;;;8350811;28;20232;-77
2022/04/27 13:53:39;;;;;;;10.52;7.20;;;;;19.40;96906.00;;;;8339850;28;20280;-78
2022/04/27 13:57:43;;;;;;;6.95;6.05;;;;;19.20;96904.00;;;;8345272;28;20224;-76
2022/04/27 14:01:47;;;;;;;10.55;6.22;;;;;19.00;96899.00;;;;8334949;28;20229;-76
2022/04/27 14:05:52;;;;;;;7.18;5.97;;;;;19.10;96905.00;;;;8341237;28;20233;-77
2022/04/27 14:09:55;;;;;;;6.07;5.47;;;;;19.30;96901.00;;;;8344162;28;20232;-77
2022/04/27 14:14:00;;;;;;;5.85;5.20;;;;;19.50;96904.00;;;;8348025;28;20235;-77
2022/04/27 14:18:14;;;;;;;11.40;6.20;;;;;19.60;96912.00;;;;8343948;28;20229;-77
2022/04/27 14:22:18;;;;;;;5.90;5.30;;;;;19.20;96902.00;;;;8348784;28;20221;-77
2022/04/27 14:26:21;;;;;;;5.63;5.03;;;;;18.90;96910.00;;;;8341076;28;20228;-78
2022/04/27 14:30:26;;;;;;;5.10;4.32;;;;;18.40;96915.00;;;;8339844;28;20248;-78
2022/04/27 14:34:29;;;;;;;8.15;5.40;;;;;18.10;96914.00;;;;8325931;28;20591;-78
2022/04/27 14:38:33;;;;;;;5.80;5.20;;;;;18.00;96914.00;;;;8332231;28;20667;-76
2022/04/27 14:42:36;;;;;;;6.28;4.93;;;;;17.80;96915.00;;;;8342176;28;20316;-74
2022/04/27 14:46:41;;;;;;;7.35;5.70;;;;;17.50;96918.00;;;;8336372;28;20231;-77
2022/04/27 14:50:46;;;;;;;12.30;6.00;;;;;17.40;96919.00;;;;8338344;28;20831;-76
2022/04/27 14:54:49;;;;;;;11.35;7.95;;;;;17.40;96924.00;;;;8329338;28;20229;-77
2022/04/27 14:58:52;;;;;;;12.48;5.93;;;;;17.60;96924.00;;;;8347141;28;20220;-77
2022/04/27 15:02:58;;;;;;;8.15;6.22;;;;;17.90;96935.00;;;;8339505;28;20682;-78
2022/04/27 15:07:01;;;;;;;7.47;5.95;;;;;18.10;96923.00;;;;8336266;28;20222;-77
2022/04/27 15:11:05;;;;;;;5.05;4.55;;;;;18.40;96922.00;;;;8346053;28;20804;-77
2022/04/27 15:15:09;;;;;;;7.95;4.93;;;;;18.60;96933.00;;;;8341547;28;20308;-77
2022/04/27 15:19:13;;;;;;;5.45;4.80;;;;;18.70;96928.00;;;;8339515;28;20228;-70
2022/04/27 15:23:17;;;;;;;8.25;5.03;;;;;19.00;96925.00;;;;8331713;28;20307;-70
2022/04/27 15:27:20;;;;;;;9.55;4.90;;;;;19.20;96930.00;;;;8338580;28;20699;-72
2022/04/27 15:31:23;;;;;;;6.13;4.68;;;;;19.30;96934.00;;;;8336715;28;20304;-71
2022/04/27 15:35:28;;;;;;;6.28;5.20;;;;;19.50;96933.00;;;;8337144;28;20252;-72
2022/04/27 15:39:31;;;;;;;6.78;5.55;;;;;19.50;96941.00;;;;8331559;28;20236;-72
2022/04/27 15:43:36;;;;;;;5.88;4.68;;;;;19.50;96935.00;;;;8334914;28;20282;-72
2022/04/27 15:47:56;;;;;;;6.60;5.05;;;;;19.40;96935.00;;;;8331987;28;20316;-76
2022/04/27 15:52:01;;;;;;;5.70;4.65;;;;;19.00;96942.00;;;;8342078;28;20252;-72
2022/04/27 15:56:05;;;;;;;5.80;5.20;;;;;18.70;96943.00;;;;8335296;28;20765;-73
2022/04/27 16:00:11;;;;;;;5.50;4.68;;;;;18.50;96942.00;;;;8340100;28;20299;-71
2022/04/27 16:04:14;;;;;;;5.68;4.65;;;;;18.10;96955.00;;;;8337578;28;20228;-72
2022/04/27 16:08:19;;;;;;;4.85;4.35;;;;;17.80;96961.00;;;;8349737;28;20669;-71
2022/04/27 16:12:22;;;;;;;5.07;4.57;;;;;17.60;96960.00;;;;8347008;28;20952;-73
2022/04/27 16:16:25;;;;;;;5.10;4.60;;;;;17.30;96965.00;;;;8318470;28;20229;-72
2022/04/27 16:20:29;;;;;;;6.40;4.78;;;;;17.10;96961.00;;;;8339633;28;20227;-72
2022/04/27 16:24:34;;;;;;;6.97;5.05;;;;;16.90;96972.00;;;;8336206;28;20319;-72
2022/04/27 16:28:37;;;;;;;7.47;5.10;;;;;16.80;96965.00;;;;8327757;28;20230;-73
2022/04/27 16:32:40;;;;;;;7.13;5.55;;;;;16.60;96974.00;;;;8327470;28;20224;-73
2022/04/27 16:36:43;;;;;;;8.40;5.30;;;;;16.60;96974.00;;;;8333938;28;20593;-72
2022/04/27 16:40:48;;;;;;;5.85;5.25;;;;;16.50;96966.00;;;;8337247;28;20228;-73
2022/04/27 16:45:12;;;;;;;6.72;4.55;;;;;16.50;96965.00;;;;8330902;28;20221;-73
2022/04/27 16:49:15;;;;;;;4.72;4.18;;;;;16.50;96970.00;;;;8339313;28;20225;-74
2022/04/27 16:53:19;;;;;;;5.93;4.30;;;;;16.60;96968.00;;;;8333641;28;20241;-74
2022/04/27 16:57:27;;;;;;;6.65;4.40;;;;;16.70;96972.00;;;;8331298;28;20236;-73
2022/04/27 17:01:30;;;;;;;8.48;5.63;;;;;16.70;96972.00;;;;8324275;28;20319;-73
2022/04/27 17:05:34;;;;;;;7.70;4.95;;;;;16.60;96981.00;;;;8322860;28;20267;-72
2022/04/27 17:09:37;;;;;;;5.38;4.88;;;;;16.40;96988.00;;;;8327976;28;20960;-71
2022/04/27 17:13:43;;;;;;;6.55;5.35;;;;;16.30;96988.00;;;;8326923;28;20248;-71
2022/04/27 17:17:46;;;;;;;10.23;6.55;;;;;16.20;96998.00;;;;8337695;28;20232;-71
2022/04/27 17:21:50;;;;;;;6.45;5.65;;;;;16.10;96991.00;;;;8326689;28;20221;-72
2022/04/27 17:30:16;;;;;;;8.10;5.72;;;;;15.80;97007.00;;;;8335187;28;20236;-72
2022/04/27 17:34:20;;;;;;;7.32;5.88;;;;;15.50;97009.00;;;;8341452;28;20254;-71
2022/04/27 17:38:23;;;;;;;12.00;7.55;;;;;15.30;97014.00;;;;8355930;28;21043;-71
2022/04/27 17:42:35;;;;;;;7.50;5.68;;;;;15.20;97010.00;;;;8348357;28;20248;-72
2022/04/27 17:46:40;;;;;;;9.00;6.55;;;;;14.90;97017.00;;;;8350207;28;20239;-72
2022/04/27 17:50:44;;;;;;;6.07;5.45;;;;;14.70;97014.00;;;;8346608;28;20248;-69
2022/04/27 17:54:47;;;;;;;6.10;5.15;;;;;14.50;97019.00;;;;8332108;28;20224;-69
2022/04/27 17:58:50;;;;;;;6.80;5.65;;;;;14.30;97027.00;;;;8328674;28;20770;-69
2022/04/27 18:02:56;;;;;;;6.47;5.78;;;;;14.00;97027.00;;;;8336458;28;20240;-69
2022/04/27 18:07:00;;;;;;;9.50;6.43;;;;;13.80;97029.00;;;;8339892;28;20268;-70
2022/04/27 18:11:04;;;;;;;11.90;7.13;;;;;13.50;97020.00;;;;8345966;28;20315;-68
2022/04/27 18:15:10;;;;;;;9.32;6.55;;;;;13.30;97034.00;;;;8340718;28;20275;-70
2022/04/27 18:19:14;;;;;;;11.55;7.40;;;;;13.10;97037.00;;;;8341622;28;20311;-69
2022/04/27 18:23:18;;;;;;;10.30;6.53;;;;;13.00;97046.00;;;;8325815;28;20226;-69
2022/04/27 18:27:21;;;;;;;10.82;6.80;;;;;12.90;97048.00;;;;8345357;28;20585;-68
2022/04/27 18:31:39;;;;;;;10.30;7.20;;;;;12.60;97050.00;;;;8336336;28;20231;-70
2022/04/27 18:35:44;;;;;;;11.43;7.32;;;;;12.20;97052.00;;;;8321254;28;20222;-69
2022/04/27 18:39:47;;;;;;;9.65;6.68;;;;;11.90;97052.00;;;;8317621;28;20865;-70
2022/04/27 18:52:33;;;;;;;9.43;6.78;;;;;10.90;97068.00;;;;8337434;28;20233;-69
2022/04/27 18:56:36;;;;;;;10.13;7.32;;;;;10.70;97065.00;;;;8336256;28;20225;-68
2022/04/27 19:00:40;;;;;;;12.63;7.93;;;;;10.50;97073.00;;;;8332755;28;20655;-70
2022/04/27 19:04:44;;;;;;;11.40;7.37;;;;;10.30;97081.00;;;;8330559;28;20235;-70
2022/04/27 19:08:48;;;;;;;17.30;9.52;;;;;10.00;97080.00;;;;8324798;28;20232;-69
2022/04/27 19:12:55;;;;;;;16.80;9.67;;;;;9.90;97087.00;;;;8326496;28;20251;-69
2022/04/27 19:22:30;;;;;;;12.33;8.47;;;;;9.40;97084.00;;;;8393697;28;20219;-68
2022/04/27 19:27:07;;;;;;;16.07;7.97;;;;;9.20;97083.00;;;;8394147;28;20227;-69
2022/04/27 19:31:47;;;;;;;16.37;8.30;;;;;9.00;97091.00;;;;8387616;28;20220;-69
2022/04/27 19:36:24;;;;;;;12.13;7.70;;;;;8.80;97090.00;;;;8394362;28;20235;-70
2022/04/27 19:41:01;;;;;;;14.73;8.40;;;;;8.70;97092.00;;;;8393791;28;20270;-69
2022/04/27 19:45:39;;;;;;;12.40;8.50;;;;;8.50;97095.00;;;;8393564;28;20212;-70
2022/04/27 19:50:18;;;;;;;13.60;8.30;;;;;8.40;97091.00;;;;8393432;28;20236;-68
2022/04/27 19:54:52;;;;;;;12.23;8.40;;;;;8.20;97095.00;;;;8391215;28;20320;-69
2022/04/27 19:59:29;;;;;;;12.27;8.10;;;;;7.90;97085.00;;;;8394750;28;20297;-69
2022/04/27 20:04:05;;;;;;;16.60;8.70;;;;;7.70;97076.00;;;;8392744;28;20307;-69
2022/04/27 20:08:44;;;;;;;14.97;7.80;;;;;7.50;97084.00;;;;8393630;28;20228;-69
2022/04/27 20:13:18;;;;;;;15.27;9.07;;;;;7.30;97079.00;;;;8393485;28;20219;-69
2022/04/27 20:17:53;;;;;;;15.03;9.37;;;;;7.20;97078.00;;;;8391718;28;20227;-70
2022/04/27 20:22:30;;;;;;;15.00;9.90;;;;;7.00;97075.00;;;;8392898;28;20302;-70
2022/04/27 20:27:09;;;;;;;13.10;8.93;;;;;6.90;97080.00;;;;8393771;28;20234;-70
2022/04/27 20:31:43;;;;;;;14.03;9.07;;;;;6.80;97080.00;;;;8392409;28;20236;-69
2022/04/27 20:35:47;;;;;;;15.47;9.70;;;;;6.70;97083.00;;;;8393764;28;20315;-70
2022/04/27 20:40:20;;;;;;;17.57;10.63;;;;;6.60;97076.00;;;;8393490;28;20259;-69
2022/04/27 20:44:25;;;;;;;17.23;10.77;;;;;6.60;97087.00;;;;8398137;28;20314;-70
2022/04/27 20:48:28;;;;;;;20.27;11.90;;;;;6.60;97085.00;;;;8399749;28;20234;-69
2022/04/27 20:53:05;;;;;;;17.07;10.90;;;;;6.60;97089.00;;;;8398926;28;20227;-70
2022/04/27 20:57:09;;;;;;;16.97;10.87;;;;;6.60;97096.00;;;;8399440;28;20299;-70
2022/04/27 21:01:47;;;;;;;19.60;11.50;;;;;6.40;97094.00;;;;8398926;28;20309;-70
2022/04/27 21:05:51;;;;;;;19.63;11.13;;;;;6.30;97102.00;;;;8398960;28;20235;-70